Cornucopia Destiny — WDE6386 — position and weather

sailwx.info

Track history (hours):
 
Tides and Currents Weather Stations Pressure Air Temp Water Temp Dewpoint Dewpoint Depression Visibility Wind Speed Wind Dir Waves Ship Positions

Cornucopia Destiny

Owner: Sultan Wholesale LLC, Keyport, NJ. More information available from US FCC via Universal Licensing System and Coast Guard Vessel Documentation Center.

Last reported at 2018-Apr-23 07:57 UTC. Time now 2018-Apr-24 07:07 UTC.
Position N 40°45' W 074°01'.

Length 39 m.

Type: Passenger vessel. MMSI: 367379570.

Date/timePositionNaut miles runAvg speedWind from/ knotsBaromVisibWave heightAir tempDewpointWater temp
2018-Apr-23 07:57N 40°45' W 074°01'0 0.0
2018-Apr-23 06:47N 40°45' W 074°01'0 0.0
2018-Apr-22 16:06N 40°45' W 074°01'0 0.0
2018-Apr-22 15:42N 40°45' W 074°01'0 0.0
2018-Apr-22 15:30N 40°45' W 074°01'0 0.0
2018-Apr-22 15:00N 40°45' W 074°01'0 0.0
2018-Apr-22 14:25N 40°45' W 074°01'0 0.0
2018-Apr-22 11:16N 40°45' W 074°01'0 0.0
2018-Apr-22 10:57N 40°45' W 074°01'0 0.0
2018-Apr-22 10:27N 40°45' W 074°01'0 0.0
2018-Apr-22 09:59N 40°45' W 074°01'0 0.0
2018-Apr-22 09:30N 40°45' W 074°01'0 0.0
2018-Apr-22 09:00N 40°45' W 074°01'0 0.0
2018-Apr-22 08:30N 40°45' W 074°01'0 0.0
2018-Apr-22 08:00N 40°45' W 074°01'0 0.0
2018-Apr-22 07:30N 40°45' W 074°01'0 0.0
2018-Apr-22 06:59N 40°45' W 074°01'0 0.0
2018-Apr-22 06:30N 40°45' W 074°01'0 0.0
2018-Apr-22 06:00N 40°45' W 074°01'0 0.0
2018-Apr-22 05:30N 40°45' W 074°01'0 0.0
2018-Apr-22 05:00N 40°45' W 074°01'0 0.0
2018-Apr-22 04:30N 40°45' W 074°01'0 0.0
2018-Apr-22 04:00N 40°45' W 074°01'0 0.0
2018-Apr-22 03:30N 40°45' W 074°01'1 1.1
2018-Apr-22 03:01N 40°45' W 074°01'2 4.3
2018-Apr-22 02:30N 40°42' W 074°02'1 2.6
2018-Apr-22 02:00N 40°41' W 074°02'0 0.9
2018-Apr-22 01:31N 40°41' W 074°02'2 4.5
2018-Apr-22 01:00N 40°42' W 073°60'2 0.1
2018-Apr-21 05:35N 40°43' W 074°02'0 4.9
2018-Apr-21 05:30N 40°43' W 074°02'0 0.2
2018-Apr-21 05:00N 40°43' W 074°02'0 0.4
2018-Apr-21 04:30N 40°43' W 074°02'1 1.3
2018-Apr-21 04:00N 40°42' W 074°02'3 6.1
2018-Apr-21 03:30N 40°39' W 074°03'3 6.9
2018-Apr-21 03:00N 40°39' W 074°08'3 6.7
2018-Apr-21 02:29N 40°37' W 074°12'4 8.4
2018-Apr-21 02:00N 40°33' W 074°14'1 0.9
2018-Apr-21 01:25N 40°33' W 074°14'0 0.7
2018-Apr-21 01:00N 40°33' W 074°15'  
Track history (hours):
 
Tides and Currents Weather Stations Pressure Air Temp Water Temp Dewpoint Dewpoint Depression Visibility Wind Speed Wind Dir Waves Ship Positions

Cornucopia Destiny

Owner: Sultan Wholesale LLC, Keyport, NJ. More information available from US FCC via Universal Licensing System and Coast Guard Vessel Documentation Center.

Last reported at 2018-Apr-23 07:57 UTC. Time now 2018-Apr-24 07:07 UTC.
Position N 40°45' W 074°01'.

Length 39 m.

Type: Passenger vessel. MMSI: 367379570.

Date/timePositionNaut miles runAvg speedWind from/ knotsBaromVisibWave heightAir tempDewpointWater temp
2018-Apr-23 07:57N 40°45' W 074°01'0 0.0
2018-Apr-23 06:47N 40°45' W 074°01'0 0.0
2018-Apr-22 16:06N 40°45' W 074°01'0 0.0
2018-Apr-22 15:42N 40°45' W 074°01'0 0.0
2018-Apr-22 15:30N 40°45' W 074°01'0 0.0
2018-Apr-22 15:00N 40°45' W 074°01'0 0.0
2018-Apr-22 14:25N 40°45' W 074°01'0 0.0
2018-Apr-22 11:16N 40°45' W 074°01'0 0.0
2018-Apr-22 10:57N 40°45' W 074°01'0 0.0
2018-Apr-22 10:27N 40°45' W 074°01'0 0.0
2018-Apr-22 09:59N 40°45' W 074°01'0 0.0
2018-Apr-22 09:30N 40°45' W 074°01'0 0.0
2018-Apr-22 09:00N 40°45' W 074°01'0 0.0
2018-Apr-22 08:30N 40°45' W 074°01'0 0.0
2018-Apr-22 08:00N 40°45' W 074°01'0 0.0
2018-Apr-22 07:30N 40°45' W 074°01'0 0.0
2018-Apr-22 06:59N 40°45' W 074°01'0 0.0
2018-Apr-22 06:30N 40°45' W 074°01'0 0.0
2018-Apr-22 06:00N 40°45' W 074°01'0 0.0
2018-Apr-22 05:30N 40°45' W 074°01'0 0.0
2018-Apr-22 05:00N 40°45' W 074°01'0 0.0
2018-Apr-22 04:30N 40°45' W 074°01'0 0.0
2018-Apr-22 04:00N 40°45' W 074°01'0 0.0
2018-Apr-22 03:30N 40°45' W 074°01'1 1.1
2018-Apr-22 03:01N 40°45' W 074°01'2 4.3
2018-Apr-22 02:30N 40°42' W 074°02'1 2.6
2018-Apr-22 02:00N 40°41' W 074°02'0 0.9
2018-Apr-22 01:31N 40°41' W 074°02'2 4.5
2018-Apr-22 01:00N 40°42' W 073°60'2 0.1
2018-Apr-21 05:35N 40°43' W 074°02'0 4.9
2018-Apr-21 05:30N 40°43' W 074°02'0 0.2
2018-Apr-21 05:00N 40°43' W 074°02'0 0.4
2018-Apr-21 04:30N 40°43' W 074°02'1 1.3
2018-Apr-21 04:00N 40°42' W 074°02'3 6.1
2018-Apr-21 03:30N 40°39' W 074°03'3 6.9
2018-Apr-21 03:00N 40°39' W 074°08'3 6.7
2018-Apr-21 02:29N 40°37' W 074°12'4 8.4
2018-Apr-21 02:00N 40°33' W 074°14'1 0.9
2018-Apr-21 01:25N 40°33' W 074°14'0 0.7
2018-Apr-21 01:00N 40°33' W 074°15'  

Dump ship's entire track history